Pagina principale
METAR-TAF:

METAR-TAF

Aeroporti :

Rimini, Italia

Aeroporto di Rimini-Miramare

latitudine: 44-02N, longitudine: 012-37E, altezza: 12 m

Osservazione

Il bollettino è stato emesso 39 minuti fa, alle 11:45 UTC
Vento 1 kt da ovest
Temperature 12°C
Umidità 67%
Pressione 1013 hPa
Visibilità 10 km o più
nessuna nube inferiore a 1500 m e nessun cumulonembo

METAR: LIPR 191145Z 27001KT CAVOK 12/06 Q1013 RMK FEW FEW100 VIS MIN 9999 WIND THR31 00000KT BLU

Ora: 13:24 (12:24 UTC)

Previsione

Il bollettino è stato emesso 1 ora e 24 minuti fa, alle 11:00 UTC
Previsione valida dal 19 alle 12 UTC al 19 alle 21 UTC
Vento 10 kt da nord/nord-ovest
Visibilità 10 km o più
Poco nuvoloso ad un'altezza di 3000 ft
Probabilità 30% :
Temporaneamente
dal 19 alle 15 UTC al 19 alle 18 UTC
Vento 15 kt da nord/nord-ovest con raffiche fino a 25 kt

TAF: LIPR 191100Z 1912/1921 33010KT 9999 FEW030 PROB30 TEMPO 1915/1918 33015G25KT

Osservazioni e previsioni meteorologiche di più di 4000 aeroporti (messaggi METAR e TAF).

Le stazioni disponibili sono rappresentate dai dischi gialli e rossi sulla carta.

Puntare il mouse per vedere il nome della stazione.

Clicca sopra per visualizzare le osservazioni e previsioni meteorologiche.

Per cambiare la mappa : fare clic sui pulsanti verdi con una croce nera per ingrandire, il pulsante verde con un trattino per diminuire, o sulla freccia verde per le mappe adiacenti.


METAR-TAF: